createdAt,value
2023-04-07T00:02:16.553Z,11.27
2023-04-07T00:04:44.945Z,13.17
2023-04-07T00:07:12.993Z,13.90
2023-04-07T00:09:41.253Z,17.93
2023-04-07T00:12:09.269Z,16.73
2023-04-07T00:14:37.317Z,13.40
2023-04-07T00:17:06.955Z,15.00
2023-04-07T00:19:35.811Z,16.33
2023-04-07T00:22:04.107Z,11.77
2023-04-07T00:24:34.680Z,17.03
2023-04-07T00:27:03.602Z,16.70
2023-04-07T00:29:32.067Z,19.00
2023-04-07T00:32:00.288Z,18.37
2023-04-07T00:34:29.672Z,21.17
2023-04-07T00:36:57.668Z,20.00
2023-04-07T00:39:27.529Z,22.00
2023-04-07T00:41:56.637Z,20.70
2023-04-07T00:44:24.707Z,18.50
2023-04-07T00:46:53.086Z,26.43
2023-04-07T00:49:21.876Z,29.40
2023-04-07T00:51:51.349Z,18.90
2023-04-07T00:54:19.707Z,22.10
2023-04-07T00:56:47.934Z,22.27
2023-04-07T00:59:16.050Z,21.37
2023-04-07T01:01:47.822Z,24.70
2023-04-07T01:04:24.431Z,21.00
2023-04-07T01:06:57.422Z,23.97
2023-04-07T01:09:38.794Z,26.50
2023-04-07T01:12:13.689Z,24.90
2023-04-07T01:14:48.655Z,26.40
2023-04-07T01:17:35.831Z,27.20
2023-04-07T01:20:08.321Z,26.23
2023-04-07T01:22:44.503Z,23.57
2023-04-07T01:25:44.824Z,24.83
2023-04-07T01:28:29.570Z,29.10
2023-04-07T01:31:01.085Z,27.87
2023-04-07T01:33:32.382Z,30.87
2023-04-07T01:36:02.111Z,28.33
2023-04-07T01:38:31.006Z,26.40
2023-04-07T01:41:00.480Z,34.77
2023-04-07T01:43:29.714Z,29.37
2023-04-07T01:46:00.477Z,23.20
2023-04-07T01:48:29.128Z,29.97
2023-04-07T01:50:57.725Z,32.17
2023-04-07T01:53:26.739Z,29.87
2023-04-07T01:55:55.563Z,28.80
2023-04-07T01:58:23.642Z,28.40
2023-04-07T02:00:51.772Z,24.40
2023-04-07T02:03:31.854Z,32.53
2023-04-07T02:06:07.801Z,27.20
2023-04-07T02:08:43.589Z,25.50
2023-04-07T02:11:13.964Z,28.90
2023-04-07T02:13:43.532Z,31.93
2023-04-07T02:16:14.803Z,22.83
2023-04-07T02:18:47.062Z,26.13
2023-04-07T02:21:16.570Z,30.80
2023-04-07T02:23:47.482Z,22.73
2023-04-07T02:26:15.540Z,25.03
2023-04-07T02:28:43.633Z,26.40
2023-04-07T02:31:13.771Z,23.63
2023-04-07T02:33:41.836Z,23.87
2023-04-07T02:36:11.159Z,25.70
2023-04-07T02:38:39.138Z,16.70
2023-04-07T02:41:07.439Z,18.03
2023-04-07T02:43:35.433Z,25.03
2023-04-07T02:46:03.489Z,14.10
2023-04-07T02:48:31.505Z,13.77
2023-04-07T02:51:00.199Z,16.33
2023-04-07T02:53:29.518Z,17.90
2023-04-07T02:55:57.658Z,14.30
2023-04-07T02:58:25.777Z,19.83
2023-04-07T03:00:53.859Z,15.30
2023-04-07T03:03:24.651Z,14.10
2023-04-07T03:06:10.758Z,16.80
2023-04-07T03:08:49.492Z,15.50
2023-04-07T03:11:17.526Z,11.97
2023-04-07T03:13:46.117Z,14.50
2023-04-07T03:16:16.088Z,18.63
2023-04-07T03:18:57.601Z,17.77
2023-04-07T03:21:25.757Z,14.47
2023-04-07T03:23:55.573Z,15.97
2023-04-07T03:26:24.118Z,17.07
2023-04-07T03:28:52.634Z,17.90
2023-04-07T03:31:21.405Z,21.37
2023-04-07T03:33:52.187Z,22.57
2023-04-07T03:36:21.497Z,22.57
2023-04-07T03:38:49.887Z,16.90
2023-04-07T03:41:21.008Z,19.33
2023-04-07T03:43:48.979Z,20.30
2023-04-07T03:46:17.040Z,13.80
2023-04-07T03:48:45.518Z,18.77
2023-04-07T03:51:13.626Z,15.47
2023-04-07T03:53:42.011Z,18.83
2023-04-07T03:56:29.124Z,15.20
2023-04-07T03:58:59.276Z,14.57
2023-04-07T04:01:34.590Z,15.10
2023-04-07T04:04:09.204Z,16.77
2023-04-07T04:06:37.328Z,14.60
2023-04-07T04:09:14.425Z,11.87
2023-04-07T04:11:47.979Z,21.07
2023-04-07T04:14:17.246Z,12.17
2023-04-07T04:16:51.528Z,15.53
2023-04-07T04:19:36.122Z,12.67
2023-04-07T04:22:12.323Z,21.30
2023-04-07T04:24:49.459Z,13.80
2023-04-07T04:27:18.796Z,12.23
2023-04-07T04:29:52.528Z,17.03
2023-04-07T04:32:27.197Z,17.37
2023-04-07T04:34:55.319Z,16.93
2023-04-07T04:37:24.102Z,11.47
2023-04-07T04:39:52.065Z,10.43
2023-04-07T04:42:26.303Z,11.60
2023-04-07T04:44:55.849Z,8.60
2023-04-07T04:47:24.137Z,10.80
2023-04-07T04:49:52.361Z,9.20
2023-04-07T04:52:21.754Z,10.03
2023-04-07T04:54:51.528Z,12.47
2023-04-07T04:57:20.310Z,9.10
2023-04-07T04:59:50.685Z,10.93
2023-04-07T05:02:18.842Z,5.73
2023-04-07T05:04:47.084Z,10.10
2023-04-07T05:07:25.592Z,13.80
2023-04-07T05:09:53.756Z,6.23
2023-04-07T05:12:22.943Z,6.90
2023-04-07T05:14:59.126Z,7.53
2023-04-07T05:17:27.292Z,7.80
2023-04-07T05:19:55.733Z,9.60
2023-04-07T05:22:34.318Z,9.80
2023-04-07T05:25:03.192Z,10.23
2023-04-07T05:27:31.222Z,8.30
2023-04-07T05:30:06.442Z,10.93
2023-04-07T05:32:36.200Z,7.37
2023-04-07T05:35:11.427Z,14.20
2023-04-07T05:37:45.394Z,6.40
2023-04-07T05:40:13.906Z,8.73
2023-04-07T05:42:42.007Z,5.47
2023-04-07T05:45:12.750Z,11.07
2023-04-07T05:47:43.972Z,8.33
2023-04-07T05:50:14.085Z,7.00
2023-04-07T05:52:46.138Z,8.90
2023-04-07T05:55:22.808Z,8.33
2023-04-07T05:57:51.667Z,9.07
2023-04-07T06:00:24.207Z,7.50
2023-04-07T06:03:02.458Z,7.27
2023-04-07T06:05:35.266Z,7.90
2023-04-07T06:08:03.544Z,7.57
2023-04-07T06:10:31.811Z,9.17
2023-04-07T06:12:59.765Z,10.47
2023-04-07T06:15:29.685Z,8.20
2023-04-07T06:17:57.676Z,8.87
2023-04-07T06:20:27.690Z,8.47
2023-04-07T06:22:55.855Z,7.23
2023-04-07T06:25:23.882Z,10.60
2023-04-07T06:27:51.932Z,9.83
2023-04-07T06:30:20.141Z,7.30
2023-04-07T06:32:49.742Z,12.50
2023-04-07T06:35:17.755Z,10.57
2023-04-07T06:37:45.997Z,9.20
2023-04-07T06:40:13.997Z,12.03
2023-04-07T06:42:41.959Z,14.60
2023-04-07T06:45:24.031Z,25.13
2023-04-07T06:47:53.345Z,11.70
2023-04-07T06:50:22.323Z,10.93
2023-04-07T06:52:50.303Z,11.23
2023-04-07T06:55:18.412Z,10.20
2023-04-07T06:57:46.377Z,12.13
2023-04-07T07:00:14.981Z,12.80
2023-04-07T07:02:42.993Z,8.47
2023-04-07T07:05:12.744Z,13.03
2023-04-07T07:07:40.763Z,11.47
2023-04-07T07:10:10.631Z,9.90
2023-04-07T07:12:38.598Z,14.47
2023-04-07T07:15:08.044Z,8.33
2023-04-07T07:17:36.032Z,9.70
2023-04-07T07:20:04.423Z,9.23
2023-04-07T07:22:33.745Z,9.20
2023-04-07T07:25:01.795Z,16.33
2023-04-07T07:27:29.760Z,11.23
2023-04-07T07:29:57.752Z,10.53
2023-04-07T07:32:25.922Z,15.17
2023-04-07T07:34:53.904Z,8.70
2023-04-07T07:37:21.893Z,9.40
2023-04-07T07:39:51.215Z,10.77
2023-04-07T07:42:19.451Z,10.30
2023-04-07T07:44:47.520Z,13.70
2023-04-07T07:47:15.575Z,14.50
2023-04-07T07:49:43.537Z,10.27
2023-04-07T07:52:11.848Z,11.07
2023-04-07T07:54:39.806Z,11.83
2023-04-07T07:57:09.208Z,10.53
2023-04-07T07:59:37.230Z,16.17
2023-04-07T08:02:05.450Z,15.73
2023-04-07T08:04:33.457Z,18.27
2023-04-07T08:07:01.488Z,11.13
2023-04-07T08:09:32.048Z,15.90
2023-04-07T08:12:00.136Z,15.27
2023-04-07T08:14:29.450Z,11.50
2023-04-07T08:16:57.530Z,15.60
2023-04-07T08:19:25.518Z,12.27
2023-04-07T08:21:53.432Z,10.20
2023-04-07T08:24:21.377Z,13.13
2023-04-07T08:26:49.353Z,17.73
2023-04-07T08:29:17.342Z,15.40
2023-04-07T08:31:46.665Z,13.00
2023-04-07T08:34:14.967Z,16.33
2023-04-07T08:36:44.019Z,11.63
2023-04-07T08:39:12.160Z,13.60
2023-04-07T08:41:41.340Z,11.93
2023-04-07T08:44:09.629Z,15.80
2023-04-07T08:46:40.310Z,12.20
2023-04-07T08:49:13.797Z,10.43
2023-04-07T08:51:47.250Z,12.43
2023-04-07T08:54:18.825Z,10.47
2023-04-07T08:56:47.023Z,9.10
2023-04-07T08:59:18.254Z,7.57
2023-04-07T09:01:47.499Z,17.13
2023-04-07T09:04:17.780Z,11.03
2023-04-07T09:06:45.878Z,10.10
2023-04-07T09:09:15.372Z,10.90
2023-04-07T09:11:43.537Z,8.83
2023-04-07T09:14:11.585Z,17.60
2023-04-07T09:16:40.056Z,12.90
2023-04-07T09:19:08.130Z,10.00
2023-04-07T09:21:51.252Z,13.13
2023-04-07T09:24:23.290Z,18.73
2023-04-07T09:26:51.336Z,6.63
2023-04-07T09:29:21.174Z,12.27
2023-04-07T09:31:51.902Z,11.50
2023-04-07T09:34:28.190Z,13.20
2023-04-07T09:36:58.244Z,10.47
2023-04-07T09:39:26.616Z,7.37
2023-04-07T09:41:54.982Z,11.83
2023-04-07T09:44:24.064Z,10.60
2023-04-07T09:46:53.227Z,15.60
2023-04-07T09:49:22.175Z,10.83
2023-04-07T09:51:59.777Z,21.83
2023-04-07T09:54:35.828Z,13.30
2023-04-07T09:57:05.056Z,12.07
2023-04-07T09:59:34.369Z,12.03
2023-04-07T10:02:03.019Z,9.87
2023-04-07T10:04:31.193Z,11.80
2023-04-07T10:07:01.060Z,19.53
2023-04-07T10:09:29.862Z,14.07
2023-04-07T10:11:59.719Z,10.50
2023-04-07T10:14:31.061Z,11.13
2023-04-07T10:17:01.509Z,9.07
2023-04-07T10:19:33.162Z,8.87
2023-04-07T10:22:04.137Z,8.33
2023-04-07T10:24:43.553Z,10.27
2023-04-07T10:27:15.612Z,11.00
2023-04-07T10:29:47.397Z,12.10
2023-04-07T10:32:15.732Z,9.30
2023-04-07T10:35:05.151Z,14.53
2023-04-07T10:37:34.578Z,8.53
2023-04-07T10:40:30.789Z,14.53
2023-04-07T10:42:59.293Z,10.37
2023-04-07T10:46:00.395Z,10.10
2023-04-07T10:48:33.195Z,10.20
2023-04-07T10:51:18.239Z,12.13
2023-04-07T11:00:18.433Z,8.63
2023-04-07T11:02:46.842Z,7.23
2023-04-07T11:05:23.441Z,11.10
2023-04-07T11:07:55.100Z,8.10
2023-04-07T11:10:23.318Z,10.77
2023-04-07T11:13:02.218Z,6.77
2023-04-07T11:15:31.712Z,8.83
2023-04-07T11:18:17.921Z,9.77
2023-04-07T11:20:52.634Z,7.80
2023-04-07T11:23:23.059Z,7.50
2023-04-07T11:25:52.549Z,5.50
2023-04-07T11:28:23.404Z,5.50
2023-04-07T11:34:16.886Z,6.40
2023-04-07T11:36:53.529Z,6.20
2023-04-07T11:39:58.770Z,4.70
2023-04-07T11:42:33.987Z,6.10
2023-04-07T11:45:02.003Z,5.40
2023-04-07T11:50:50.737Z,5.07
2023-04-07T11:53:27.098Z,7.03
2023-04-07T11:56:04.392Z,9.37
2023-04-07T11:58:32.522Z,7.03
2023-04-07T12:01:05.057Z,6.20
2023-04-07T12:03:34.196Z,8.00
2023-04-07T12:10:44.542Z,4.10
2023-04-07T12:13:15.162Z,7.03
2023-04-07T12:15:43.592Z,5.20
2023-04-07T12:18:18.242Z,4.50
2023-04-07T12:20:46.235Z,6.97
2023-04-07T12:29:20.967Z,5.50
2023-04-07T12:31:51.063Z,6.27
2023-04-07T12:34:19.713Z,5.90
2023-04-07T12:36:48.225Z,5.50
2023-04-07T12:39:16.739Z,9.97
2023-04-07T12:41:45.687Z,5.47
2023-04-07T12:44:13.684Z,10.67
2023-04-07T12:46:43.213Z,6.97
2023-04-07T12:49:11.251Z,9.93
2023-04-07T12:51:40.196Z,5.73
2023-04-07T12:54:08.641Z,6.47
2023-04-07T12:56:36.647Z,7.97
2023-04-07T12:59:04.947Z,5.83
2023-04-07T13:01:35.155Z,7.33
2023-04-07T13:04:04.699Z,7.03
2023-04-07T13:06:33.550Z,8.93
2023-04-07T13:09:01.492Z,12.77
2023-04-07T13:11:29.476Z,12.27
2023-04-07T13:13:59.220Z,11.63
2023-04-07T13:16:28.751Z,6.53
2023-04-07T13:18:57.185Z,16.10
2023-04-07T13:21:45.146Z,8.50
2023-04-07T13:24:14.502Z,7.53
2023-04-07T13:26:42.479Z,8.93
2023-04-07T13:29:10.446Z,14.03
2023-04-07T13:31:38.570Z,11.47
2023-04-07T13:34:06.514Z,8.13
2023-04-07T13:36:35.803Z,6.30
2023-04-07T13:39:04.194Z,6.70
2023-04-07T13:41:32.111Z,5.90
2023-04-07T13:44:00.756Z,8.10
2023-04-07T13:46:29.530Z,5.90
2023-04-07T13:48:57.767Z,5.90
2023-04-07T13:51:25.712Z,6.80
2023-04-07T13:53:55.112Z,9.27
2023-04-07T13:56:23.512Z,7.27
2023-04-07T13:58:51.812Z,11.43
2023-04-07T14:01:19.848Z,7.10
2023-04-07T14:03:49.549Z,9.00
2023-04-07T14:06:17.902Z,6.57
2023-04-07T14:08:45.866Z,6.27
2023-04-07T14:11:18.392Z,9.47
2023-04-07T14:13:46.875Z,9.30
2023-04-07T14:16:14.982Z,8.77
2023-04-07T14:18:43.173Z,13.50
2023-04-07T14:21:11.197Z,4.90
2023-04-07T14:23:39.268Z,4.73
2023-04-07T14:26:10.364Z,4.30
2023-04-07T14:45:52.081Z,11.40
2023-04-07T14:48:20.051Z,10.17
2023-04-07T14:50:50.197Z,8.30
2023-04-07T14:53:24.500Z,6.93
2023-04-07T14:55:52.410Z,4.10
2023-04-07T14:58:20.349Z,4.20
2023-04-07T15:00:48.344Z,5.40
2023-04-07T15:03:17.961Z,4.80
2023-04-07T15:05:46.310Z,6.60
2023-04-07T15:08:14.239Z,4.53
2023-04-07T15:10:42.233Z,6.30
2023-04-07T15:13:10.224Z,8.33
2023-04-07T15:15:38.172Z,5.97
2023-04-07T15:18:06.154Z,4.50
2023-04-07T15:20:35.566Z,5.77
2023-04-07T15:23:03.542Z,4.90
2023-04-07T15:25:31.529Z,3.67
2023-04-07T15:27:59.524Z,5.13
2023-04-07T15:30:27.454Z,8.23
2023-04-07T15:33:00.336Z,6.73
2023-04-07T15:35:28.613Z,7.80
2023-04-07T15:37:57.897Z,9.60
2023-04-07T15:40:25.940Z,7.70
2023-04-07T15:42:53.938Z,6.30
2023-04-07T15:45:22.160Z,8.17
2023-04-07T15:47:50.225Z,8.83
2023-04-07T15:50:18.260Z,5.60
2023-04-07T15:52:46.262Z,4.27
2023-04-07T15:55:15.586Z,8.60
2023-04-07T15:57:43.580Z,5.20
2023-04-07T16:00:12.112Z,7.63
2023-04-07T16:02:40.210Z,10.43
2023-04-07T16:05:09.012Z,9.80
2023-04-07T16:07:37.249Z,4.90
2023-04-07T16:10:08.069Z,12.80
2023-04-07T16:12:37.914Z,7.83
2023-04-07T16:22:37.757Z,11.33
2023-04-07T16:25:06.939Z,5.57
2023-04-07T16:27:34.908Z,5.40
2023-04-07T16:30:05.104Z,10.17
2023-04-07T16:32:33.240Z,7.50
2023-04-07T16:35:01.280Z,7.10
2023-04-07T16:37:30.254Z,6.57
2023-04-07T16:39:58.470Z,9.83
2023-04-07T16:42:28.466Z,7.63
2023-04-07T16:44:57.646Z,4.30
2023-04-07T16:47:27.226Z,9.07
2023-04-07T16:49:55.266Z,10.10
2023-04-07T16:52:23.903Z,10.73
2023-04-07T16:54:51.921Z,10.10
2023-04-07T16:57:19.907Z,5.07
2023-04-07T16:59:48.374Z,9.30
2023-04-07T17:02:17.053Z,7.60
2023-04-07T17:04:46.608Z,7.00
2023-04-07T17:07:14.694Z,10.10
2023-04-07T17:09:42.662Z,7.50
2023-04-07T17:12:10.683Z,10.60
2023-04-07T17:14:38.683Z,7.20
2023-04-07T17:17:06.641Z,11.97
2023-04-07T17:19:35.558Z,10.50
2023-04-07T17:22:04.866Z,16.73
2023-04-07T17:24:32.821Z,19.10
2023-04-07T17:27:00.873Z,13.07
2023-04-07T17:29:31.218Z,10.43
2023-04-07T17:31:59.182Z,7.40
2023-04-07T17:34:27.166Z,12.37
2023-04-07T17:36:55.091Z,9.60
2023-04-07T17:39:24.433Z,14.37
2023-04-07T17:41:52.390Z,12.03
2023-04-07T17:44:20.358Z,30.67
2023-04-07T17:46:48.396Z,12.23
2023-04-07T17:49:17.036Z,13.53
2023-04-07T17:51:45.743Z,10.10
2023-04-07T17:54:13.785Z,8.13
2023-04-07T17:56:43.109Z,11.03
2023-04-07T17:59:11.099Z,9.80
2023-04-07T18:01:39.566Z,10.40
2023-04-07T18:04:07.766Z,13.50
2023-04-07T18:06:36.810Z,7.73
2023-04-07T18:09:05.560Z,8.63
2023-04-07T18:11:33.788Z,7.97
2023-04-07T18:14:03.164Z,9.17
2023-04-07T18:16:31.172Z,11.67
2023-04-07T18:19:00.434Z,8.30
2023-04-07T18:21:29.407Z,10.47
2023-04-07T18:23:57.348Z,9.20
2023-04-07T18:26:25.308Z,9.90
2023-04-07T18:28:53.322Z,8.67
2023-04-07T18:31:22.735Z,10.23
2023-04-07T18:33:51.009Z,9.13
2023-04-07T18:36:19.189Z,15.30
2023-04-07T18:38:47.307Z,10.20
2023-04-07T18:41:15.355Z,9.40
2023-04-07T18:43:43.338Z,8.70
2023-04-07T18:46:11.466Z,15.57
2023-04-07T18:48:43.964Z,11.00
2023-04-07T18:51:12.568Z,9.73
2023-04-07T18:53:40.626Z,13.57
2023-04-07T18:56:08.599Z,14.90
2023-04-07T18:58:43.568Z,16.50
2023-04-07T19:01:12.125Z,10.90
2023-04-07T19:03:41.897Z,8.20
2023-04-07T19:06:10.367Z,7.57
2023-04-07T19:08:38.321Z,6.73
2023-04-07T19:11:06.398Z,11.93
2023-04-07T19:13:34.353Z,8.53
2023-04-07T19:16:02.918Z,15.00
2023-04-07T19:18:31.822Z,7.40
2023-04-07T19:21:01.497Z,15.83
2023-04-07T19:23:30.408Z,8.37
2023-04-07T19:25:58.522Z,10.00
2023-04-07T19:28:26.599Z,8.47
2023-04-07T19:30:54.855Z,9.97
2023-04-07T19:33:22.785Z,10.50
2023-04-07T19:35:50.810Z,7.30
2023-04-07T19:38:20.393Z,10.87
2023-04-07T19:40:48.466Z,9.00
2023-04-07T19:43:17.375Z,8.73
2023-04-07T19:45:47.650Z,10.23
2023-04-07T19:48:15.665Z,13.13
2023-04-07T19:50:44.050Z,10.43
2023-04-07T19:53:15.825Z,11.10
2023-04-07T19:55:45.259Z,7.03
2023-04-07T19:58:13.726Z,8.77
2023-04-07T20:00:41.824Z,16.27
2023-04-07T20:03:09.930Z,10.50
2023-04-07T20:05:38.331Z,10.13
2023-04-07T20:08:06.368Z,10.17
2023-04-07T20:10:34.372Z,12.07
2023-04-07T20:13:05.866Z,8.53
2023-04-07T20:15:34.405Z,8.90
2023-04-07T20:18:02.754Z,11.60
2023-04-07T20:20:31.139Z,11.43
2023-04-07T20:22:59.078Z,22.30
2023-04-07T20:25:27.037Z,10.53
2023-04-07T20:27:54.968Z,12.50
2023-04-07T20:30:24.319Z,15.03
2023-04-07T20:32:52.334Z,10.40
2023-04-07T20:35:20.537Z,18.67
2023-04-07T20:37:48.475Z,10.60
2023-04-07T20:40:16.945Z,11.87
2023-04-07T20:42:45.910Z,9.03
2023-04-07T20:45:13.905Z,16.07
2023-04-07T20:47:43.234Z,8.80
2023-04-07T20:50:11.679Z,11.43
2023-04-07T20:52:40.309Z,9.93
2023-04-07T20:55:09.333Z,8.73
2023-04-07T20:57:37.365Z,17.60
2023-04-07T21:00:06.345Z,13.87
2023-04-07T21:02:34.754Z,12.43
2023-04-07T21:05:04.692Z,13.97
2023-04-07T21:07:32.625Z,25.23
2023-04-07T21:10:00.932Z,15.30
2023-04-07T21:12:28.826Z,10.50
2023-04-07T21:14:56.738Z,12.97
2023-04-07T21:17:24.776Z,13.50
2023-04-07T21:19:52.720Z,19.50
2023-04-07T21:22:22.044Z,13.80
2023-04-07T21:24:50.022Z,11.27
2023-04-07T21:27:18.310Z,13.47
2023-04-07T21:29:46.279Z,13.63
2023-04-07T21:32:14.300Z,16.90
2023-04-07T21:34:42.342Z,12.33
2023-04-07T21:37:10.287Z,9.30
2023-04-07T21:39:39.587Z,15.17
2023-04-07T21:42:07.573Z,13.33
2023-04-07T21:44:35.552Z,19.93
2023-04-07T21:47:03.521Z,13.67
2023-04-07T21:49:31.844Z,12.03
2023-04-07T21:52:00.120Z,14.07
2023-04-07T21:54:28.064Z,10.73
2023-04-07T21:56:57.342Z,11.13
2023-04-07T21:59:25.576Z,15.90
2023-04-07T22:01:53.687Z,14.70
2023-04-07T22:04:22.872Z,15.30
2023-04-07T22:06:51.001Z,13.83
2023-04-07T22:09:21.922Z,17.40
2023-04-07T22:11:50.642Z,13.87
2023-04-07T22:14:24.780Z,15.37
2023-04-07T22:16:52.955Z,14.47
2023-04-07T22:19:21.517Z,12.70
2023-04-07T22:21:49.541Z,13.20
2023-04-07T22:24:17.522Z,11.03
2023-04-07T22:26:45.561Z,19.50
2023-04-07T22:29:13.534Z,14.20
2023-04-07T22:31:42.868Z,16.07
2023-04-07T22:34:11.308Z,16.33
2023-04-07T22:36:39.306Z,15.40
2023-04-07T22:39:08.338Z,19.33
2023-04-07T22:41:36.327Z,12.80
2023-04-07T22:44:04.558Z,16.57
2023-04-07T22:46:32.568Z,19.03
2023-04-07T22:49:01.864Z,18.10
2023-04-07T22:51:29.949Z,18.30
2023-04-07T22:53:58.153Z,15.27
2023-04-07T22:56:27.140Z,15.80
2023-04-07T22:58:57.410Z,12.73
2023-04-07T23:01:25.511Z,14.67
2023-04-07T23:03:53.651Z,19.90
2023-04-07T23:06:22.993Z,24.67
2023-04-07T23:08:51.444Z,15.60
2023-04-07T23:11:21.013Z,17.67
2023-04-07T23:13:51.246Z,18.87
2023-04-07T23:16:19.292Z,21.30
2023-04-07T23:18:47.400Z,16.90
2023-04-07T23:21:15.518Z,18.10
2023-04-07T23:23:44.902Z,23.73
2023-04-07T23:26:12.867Z,18.87
2023-04-07T23:28:40.906Z,17.50
2023-04-07T23:31:08.915Z,16.30
2023-04-07T23:33:36.854Z,14.70
2023-04-07T23:36:05.308Z,17.73
2023-04-07T23:38:33.288Z,16.67
2023-04-07T23:41:03.148Z,15.40
2023-04-07T23:43:31.126Z,16.80
2023-04-07T23:45:59.123Z,17.77
2023-04-07T23:48:27.219Z,19.60
2023-04-07T23:50:55.966Z,21.97
2023-04-07T23:53:24.006Z,19.93
2023-04-07T23:55:51.976Z,19.03
2023-04-07T23:58:21.321Z,18.10
